createdAt,value
2018-07-30T00:00:28.071Z,3.94
2018-07-30T00:08:42.490Z,4.40
2018-07-30T00:11:10.876Z,4.16
2018-07-30T00:13:39.146Z,4.16
2018-07-30T00:16:07.511Z,4.40
2018-07-30T00:24:22.285Z,4.10
2018-07-30T00:26:51.711Z,4.58
2018-07-30T00:29:21.053Z,4.52
2018-07-30T00:31:53.654Z,4.60
2018-07-30T00:34:21.908Z,4.52
2018-07-30T00:36:54.762Z,3.74
2018-07-30T00:39:23.057Z,3.66
2018-07-30T00:41:51.386Z,4.32
2018-07-30T00:44:20.824Z,4.48
2018-07-30T00:46:50.271Z,4.72
2018-07-30T00:49:18.529Z,4.24
2018-07-30T00:51:47.864Z,4.10
2018-07-30T00:54:16.143Z,4.00
2018-07-30T00:56:44.470Z,4.46
2018-07-30T00:59:13.658Z,4.08
2018-07-30T01:01:41.905Z,4.36
2018-07-30T01:04:16.327Z,4.46
2018-07-30T01:06:44.622Z,4.80
2018-07-30T01:09:13.036Z,4.72
2018-07-30T01:11:41.292Z,4.44
2018-07-30T01:14:09.589Z,5.12
2018-07-30T01:16:37.899Z,4.34
2018-07-30T01:19:06.200Z,4.94
2018-07-30T01:21:34.495Z,4.38
2018-07-30T01:24:02.040Z,4.30
2018-07-30T01:26:30.291Z,4.44
2018-07-30T01:28:58.552Z,4.90
2018-07-30T01:31:26.857Z,4.22
2018-07-30T01:33:56.172Z,4.70
2018-07-30T01:36:24.458Z,4.58
2018-07-30T01:38:52.728Z,4.44
2018-07-30T01:41:22.333Z,4.92
2018-07-30T01:43:54.384Z,4.54
2018-07-30T01:46:22.640Z,4.28
2018-07-30T01:48:52.212Z,4.82
2018-07-30T01:51:21.722Z,4.76
2018-07-30T01:53:50.886Z,4.12
2018-07-30T01:56:19.878Z,4.30
2018-07-30T02:01:41.881Z,4.72
2018-07-30T02:04:10.143Z,4.22
2018-07-30T02:06:37.676Z,4.60
2018-07-30T02:09:05.980Z,5.38
2018-07-30T02:11:38.192Z,4.48
2018-07-30T02:14:16.807Z,4.58
2018-07-30T02:16:45.159Z,4.40
2018-07-30T02:22:07.231Z,5.00
2018-07-30T02:24:35.534Z,5.54
2018-07-30T02:27:07.408Z,5.64
2018-07-30T02:29:35.705Z,3.92
2018-07-30T02:37:51.456Z,4.78
2018-07-30T02:40:20.714Z,4.32
2018-07-30T02:42:50.690Z,4.76
2018-07-30T02:45:21.794Z,4.70
2018-07-30T02:47:55.408Z,4.32
2018-07-30T02:50:28.361Z,4.12
2018-07-30T02:52:57.607Z,4.34
2018-07-30T02:55:25.172Z,4.78
2018-07-30T02:57:53.461Z,4.30
2018-07-30T03:00:31.643Z,4.48
2018-07-30T03:02:59.897Z,4.88
2018-07-30T03:05:28.188Z,4.10
2018-07-30T03:07:56.521Z,4.22
2018-07-30T03:10:26.247Z,6.14
2018-07-30T03:13:08.058Z,5.28
2018-07-30T03:18:29.003Z,5.14
2018-07-30T03:20:57.326Z,4.82
2018-07-30T03:26:18.384Z,4.20
2018-07-30T03:28:46.707Z,5.06
2018-07-30T03:31:14.964Z,4.84
2018-07-30T03:33:44.192Z,5.32
2018-07-30T03:36:12.520Z,4.64
2018-07-30T03:38:40.095Z,5.50
2018-07-30T03:41:08.375Z,5.10
2018-07-30T03:43:38.663Z,4.58
2018-07-30T03:46:06.955Z,7.32
2018-07-30T03:48:35.288Z,4.88
2018-07-30T07:08:04.190Z,4.70
2018-07-30T07:10:32.452Z,5.42
2018-07-30T07:13:01.451Z,5.76
2018-07-30T07:15:29.734Z,5.22
2018-07-30T07:17:58.028Z,5.38
2018-07-30T07:20:26.304Z,5.40
2018-07-30T07:25:00.845Z,5.50
2018-07-30T07:27:29.269Z,5.47
2018-07-30T07:29:57.550Z,4.60
2018-07-30T07:32:25.919Z,5.90
2018-07-30T07:34:54.431Z,4.77
2018-07-30T07:37:23.028Z,5.20
2018-07-30T07:39:58.251Z,5.33
2018-07-30T07:42:26.580Z,5.30
2018-07-30T07:44:54.953Z,5.50
2018-07-30T07:47:23.339Z,5.40
2018-07-30T07:49:56.021Z,6.33
2018-07-30T07:52:24.259Z,5.87
2018-07-30T07:54:54.708Z,6.00
2018-07-30T07:57:23.951Z,5.30
2018-07-30T07:59:53.580Z,5.83
2018-07-30T08:02:22.984Z,6.70
2018-07-30T08:04:51.803Z,6.20
2018-07-30T08:07:20.135Z,5.97
2018-07-30T08:10:00.518Z,5.03
2018-07-30T08:12:28.861Z,4.97
2018-07-30T08:14:57.101Z,4.97
2018-07-30T08:17:25.381Z,5.20
2018-07-30T08:20:06.212Z,5.37
2018-07-30T08:22:34.588Z,5.00
2018-07-30T08:25:08.981Z,4.90
2018-07-30T08:27:37.389Z,5.20
2018-07-30T08:30:07.089Z,4.73
2018-07-30T08:32:35.785Z,5.50
2018-07-30T08:35:09.991Z,6.40
2018-07-30T08:37:38.298Z,5.40
2018-07-30T08:40:07.593Z,5.40
2018-07-30T08:42:35.940Z,5.40
2018-07-30T08:45:15.236Z,4.50
2018-07-30T08:47:43.259Z,5.00
2018-07-30T08:50:11.635Z,5.43
2018-07-30T08:52:39.919Z,5.13
2018-07-30T08:55:08.792Z,4.90
2018-07-30T08:57:50.624Z,4.80
2018-07-30T09:00:18.980Z,5.13
2018-07-30T09:02:48.331Z,5.83
2018-07-30T09:05:16.589Z,5.50
2018-07-30T09:07:45.131Z,5.27
2018-07-30T09:10:13.545Z,5.70
2018-07-30T09:12:41.911Z,5.20
2018-07-30T09:15:10.104Z,4.37
2018-07-30T09:17:38.400Z,4.57
2018-07-30T09:20:06.952Z,5.80
2018-07-30T09:22:35.332Z,4.50
2018-07-30T09:25:04.969Z,4.03
2018-07-30T09:27:34.627Z,5.23
2018-07-30T09:30:06.294Z,5.63
2018-07-30T09:32:35.593Z,4.97
2018-07-30T09:35:05.026Z,4.27
2018-07-30T09:37:34.990Z,5.20
2018-07-30T09:40:07.128Z,4.90
2018-07-30T09:42:35.488Z,4.77
2018-07-30T09:45:05.735Z,6.87
2018-07-30T09:47:35.069Z,5.77
2018-07-30T09:50:04.795Z,5.87
2018-07-30T09:52:34.179Z,5.20
2018-07-30T09:55:05.819Z,4.50
2018-07-30T09:57:34.994Z,4.90
2018-07-30T10:00:05.328Z,5.20
2018-07-30T10:02:34.696Z,5.73
2018-07-30T10:05:05.727Z,5.20
2018-07-30T10:07:35.077Z,4.60
2018-07-30T10:10:06.867Z,5.20
2018-07-30T10:12:35.164Z,5.00
2018-07-30T10:15:04.826Z,5.27
2018-07-30T10:17:34.273Z,5.07
2018-07-30T10:20:03.487Z,4.83
2018-07-30T10:22:33.321Z,5.45
2018-07-30T10:25:02.371Z,5.73
2018-07-30T10:27:30.646Z,5.10
2018-07-30T10:29:59.088Z,4.90
2018-07-30T10:32:27.235Z,4.43
2018-07-30T10:34:55.647Z,4.80
2018-07-30T10:37:24.958Z,5.03
2018-07-30T10:39:55.347Z,3.70
2018-07-30T10:42:24.897Z,4.43
2018-07-30T10:44:57.539Z,3.30
2018-07-30T10:47:26.030Z,4.47
2018-07-30T10:49:56.078Z,4.40
2018-07-30T10:52:25.030Z,3.80
2018-07-30T10:54:56.669Z,3.87
2018-07-30T10:57:25.005Z,3.73
2018-07-30T10:59:54.345Z,4.33
2018-07-30T11:02:23.479Z,3.87
2018-07-30T11:04:51.721Z,4.30
2018-07-30T11:07:20.218Z,3.53
2018-07-30T11:09:48.637Z,3.60
2018-07-30T11:12:16.973Z,3.50
2018-07-30T11:14:45.323Z,3.10
2018-07-30T11:17:13.723Z,4.20
2018-07-30T11:19:43.091Z,3.50
2018-07-30T11:22:11.165Z,4.03
2018-07-30T11:24:39.801Z,3.70
2018-07-30T11:27:08.164Z,3.80
2018-07-30T11:29:38.555Z,4.00
2018-07-30T11:32:06.691Z,3.87
2018-07-30T11:34:35.195Z,3.60
2018-07-30T11:37:04.629Z,3.50
2018-07-30T11:39:34.219Z,4.07
2018-07-30T11:42:03.681Z,3.90
2018-07-30T11:44:32.734Z,4.17
2018-07-30T11:47:02.657Z,4.37
2018-07-30T11:49:32.202Z,3.77
2018-07-30T11:52:00.513Z,3.50
2018-07-30T11:54:29.054Z,3.40
2018-07-30T11:56:57.279Z,4.30
2018-07-30T11:59:25.648Z,3.80
2018-07-30T12:01:55.048Z,3.87
2018-07-30T12:04:23.908Z,3.90
2018-07-30T12:06:52.229Z,3.63
2018-07-30T12:09:20.518Z,3.60
2018-07-30T12:11:48.885Z,3.20
2018-07-30T12:14:17.252Z,4.10
2018-07-30T12:16:45.563Z,3.20
2018-07-30T12:19:13.786Z,3.20
2018-07-30T12:21:42.136Z,3.27
2018-07-30T12:24:10.419Z,3.67
2018-07-30T12:26:38.932Z,3.40
2018-07-30T12:29:07.268Z,3.23
2018-07-30T12:31:35.545Z,3.60
2018-07-30T12:34:05.353Z,3.50
2018-07-30T12:36:34.955Z,3.70
2018-07-30T12:39:05.071Z,3.70
2018-07-30T12:41:34.114Z,3.27
2018-07-30T12:44:03.543Z,3.63
2018-07-30T12:46:33.172Z,3.60
2018-07-30T12:49:02.701Z,3.90
2018-07-30T12:51:31.835Z,3.33
2018-07-30T12:54:00.142Z,3.57
2018-07-30T12:56:28.522Z,3.60
2018-07-30T12:58:56.868Z,3.70
2018-07-30T13:01:26.372Z,3.33
2018-07-30T13:03:55.180Z,3.53
2018-07-30T13:06:24.588Z,3.60
2018-07-30T13:08:54.114Z,4.03
2018-07-30T13:11:22.407Z,3.60
2018-07-30T13:13:50.841Z,3.30
2018-07-30T13:16:33.220Z,3.90
2018-07-30T13:19:02.601Z,4.00
2018-07-30T13:21:30.908Z,3.70
2018-07-30T13:24:01.457Z,4.40
2018-07-30T13:26:29.840Z,3.70
2018-07-30T13:32:10.426Z,3.90
2018-07-30T13:34:43.749Z,3.70
2018-07-30T13:37:12.078Z,4.07
2018-07-30T13:39:40.372Z,3.90
2018-07-30T13:45:01.454Z,3.40
2018-07-30T13:47:29.744Z,4.23
2018-07-30T13:49:58.145Z,3.37
2018-07-30T13:55:19.859Z,3.90
2018-07-30T13:57:52.560Z,3.67
2018-07-30T14:06:07.580Z,4.13
2018-07-30T14:08:35.874Z,3.90
2018-07-30T14:11:04.334Z,3.63
2018-07-30T14:13:32.809Z,3.37
2018-07-30T14:16:01.193Z,3.70
2018-07-30T14:18:29.565Z,3.57
2018-07-30T14:20:58.031Z,4.30
2018-07-30T14:23:26.288Z,3.90
2018-07-30T14:25:54.620Z,4.40
2018-07-30T14:28:24.420Z,3.87
2018-07-30T14:30:53.708Z,3.90
2018-07-30T14:33:25.269Z,3.80
2018-07-30T14:35:54.625Z,3.73
2018-07-30T14:38:24.014Z,4.30
2018-07-30T14:40:53.481Z,3.67
2018-07-30T14:43:22.566Z,3.87
2018-07-30T14:45:50.900Z,3.97
2018-07-30T14:48:19.309Z,3.97
2018-07-30T14:50:47.610Z,3.20
2018-07-30T14:53:19.075Z,3.73
2018-07-30T14:55:47.349Z,3.70
2018-07-30T14:58:16.785Z,3.50
2018-07-30T15:00:45.081Z,3.87
2018-07-30T15:03:13.356Z,3.93
2018-07-30T15:05:41.694Z,3.57
2018-07-30T15:08:10.019Z,4.03
2018-07-30T15:10:38.328Z,3.40
2018-07-30T15:13:06.641Z,3.90
2018-07-30T15:15:35.938Z,4.10
2018-07-30T15:20:57.843Z,3.63
2018-07-30T15:23:26.091Z,3.30
2018-07-30T15:25:54.408Z,3.97
2018-07-30T15:28:24.144Z,3.90
2018-07-30T15:30:53.546Z,3.90
2018-07-30T15:33:23.339Z,3.97
2018-07-30T15:35:52.818Z,3.83
2018-07-30T15:38:21.290Z,3.63
2018-07-30T15:40:49.648Z,4.07
2018-07-30T15:43:36.870Z,3.93
2018-07-30T15:46:06.455Z,3.90
2018-07-30T15:48:35.657Z,4.13
2018-07-30T15:51:05.448Z,3.17
2018-07-30T15:53:34.740Z,4.10
2018-07-30T15:56:03.103Z,3.70
2018-07-30T15:58:31.381Z,4.33
2018-07-30T16:00:59.387Z,3.57
2018-07-30T16:03:27.667Z,3.20
2018-07-30T16:05:55.960Z,3.00
2018-07-30T16:08:24.907Z,3.50
2018-07-30T16:10:54.188Z,3.20
2018-07-30T16:13:23.527Z,3.53
2018-07-30T16:15:52.820Z,3.40
2018-07-30T16:18:22.198Z,4.13
2018-07-30T16:20:50.473Z,3.50
2018-07-30T16:23:18.801Z,3.83
2018-07-30T16:25:47.106Z,3.40
2018-07-30T16:28:15.347Z,3.80
2018-07-30T16:30:43.800Z,3.73
2018-07-30T16:33:12.005Z,3.20
2018-07-30T16:35:40.317Z,3.63
2018-07-30T16:38:08.671Z,3.90
2018-07-30T16:40:36.981Z,3.33
2018-07-30T16:43:05.435Z,3.33
2018-07-30T16:45:34.635Z,4.53
2018-07-30T16:48:02.892Z,3.53
2018-07-30T16:50:31.184Z,4.00
2018-07-30T16:52:59.420Z,3.40
2018-07-30T16:55:27.845Z,4.60
2018-07-30T16:57:56.084Z,4.20
2018-07-30T17:00:24.776Z,4.07
2018-07-30T17:02:54.069Z,3.70
2018-07-30T17:05:23.662Z,3.70
2018-07-30T17:07:52.796Z,4.27
2018-07-30T17:10:21.950Z,4.00
2018-07-30T17:12:50.243Z,3.50
2018-07-30T17:15:18.609Z,3.80
2018-07-30T17:17:46.893Z,3.57
2018-07-30T17:20:15.195Z,4.10
2018-07-30T17:22:43.820Z,3.70
2018-07-30T17:25:12.143Z,3.40
2018-07-30T17:27:40.403Z,3.20
2018-07-30T17:30:09.771Z,3.60
2018-07-30T17:32:38.017Z,3.57
2018-07-30T17:35:06.616Z,3.43
2018-07-30T17:37:36.136Z,3.63
2018-07-30T17:40:06.244Z,3.63
2018-07-30T17:42:35.578Z,4.07
2018-07-30T17:45:05.228Z,4.40
2018-07-30T17:47:33.943Z,3.90
2018-07-30T17:50:03.248Z,3.70
2018-07-30T17:52:32.391Z,3.33
2018-07-30T17:55:00.704Z,3.60
2018-07-30T17:57:29.064Z,3.40
2018-07-30T17:59:57.309Z,4.00
2018-07-30T18:02:25.615Z,3.30
2018-07-30T18:05:00.299Z,3.80
2018-07-30T18:07:28.589Z,4.37
2018-07-30T18:09:56.883Z,3.40
2018-07-30T18:12:25.228Z,3.07
2018-07-30T18:14:54.434Z,3.70
2018-07-30T18:17:24.224Z,3.50
2018-07-30T18:19:53.266Z,3.53
2018-07-30T18:22:22.568Z,3.40
2018-07-30T18:24:50.851Z,4.90
2018-07-30T18:27:19.102Z,3.87
2018-07-30T18:29:47.425Z,4.30
2018-07-30T18:32:15.693Z,3.80
2018-07-30T18:34:44.061Z,4.03
2018-07-30T18:37:12.466Z,3.70
2018-07-30T18:39:40.755Z,3.60
2018-07-30T18:42:09.050Z,3.80
2018-07-30T18:44:37.403Z,3.80
2018-07-30T18:47:06.462Z,3.80
2018-07-30T18:49:34.805Z,3.60
2018-07-30T18:52:03.088Z,3.67
2018-07-30T18:54:31.402Z,4.10
2018-07-30T18:56:59.776Z,3.47
2018-07-30T18:59:28.159Z,4.13
2018-07-30T19:01:56.434Z,4.43
2018-07-30T19:04:24.740Z,4.43
2018-07-30T19:06:54.302Z,4.13
2018-07-30T19:09:23.753Z,4.10
2018-07-30T19:11:52.878Z,3.80
2018-07-30T19:14:22.146Z,3.70
2018-07-30T19:16:53.560Z,4.40
2018-07-30T19:19:23.525Z,4.30
2018-07-30T19:21:53.380Z,3.77
2018-07-30T19:24:22.581Z,3.47
2018-07-30T19:26:52.688Z,4.20
2018-07-30T19:29:21.011Z,4.33
2018-07-30T19:31:49.542Z,3.90
2018-07-30T19:34:17.885Z,4.57
2018-07-30T19:36:46.180Z,4.27
2018-07-30T19:39:14.548Z,4.10
2018-07-30T19:41:42.812Z,4.37
2018-07-30T19:44:11.373Z,4.60
2018-07-30T19:46:39.576Z,4.10
2018-07-30T19:49:07.945Z,4.23
2018-07-30T19:51:37.521Z,4.97
2018-07-30T19:54:07.093Z,5.00
2018-07-30T19:56:35.412Z,4.10
2018-07-30T19:59:04.995Z,4.10
2018-07-30T20:01:33.175Z,4.70
2018-07-30T20:04:01.243Z,4.60
2018-07-30T20:06:29.598Z,4.97
2018-07-30T20:08:57.953Z,4.83
2018-07-30T20:11:26.355Z,4.03
2018-07-30T20:13:54.680Z,4.97
2018-07-30T20:16:24.105Z,3.90
2018-07-30T20:18:53.495Z,3.00
2018-07-30T20:21:22.355Z,3.30
2018-07-30T20:23:50.680Z,3.03
2018-07-30T20:26:19.005Z,3.60
2018-07-30T20:28:47.383Z,3.30
2018-07-30T20:31:22.065Z,3.57
2018-07-30T20:33:51.502Z,2.90
2018-07-30T20:36:22.750Z,4.00
2018-07-30T20:38:52.036Z,2.97
2018-07-30T20:41:24.604Z,3.00
2018-07-30T20:43:53.781Z,3.30
2018-07-30T20:46:22.921Z,3.13
2018-07-30T20:48:52.136Z,3.43
2018-07-30T20:51:20.792Z,3.30
2018-07-30T20:53:49.164Z,3.37
2018-07-30T20:56:19.520Z,3.40
2018-07-30T20:58:47.788Z,3.20
2018-07-30T21:01:16.093Z,3.37
2018-07-30T21:03:44.100Z,3.40
2018-07-30T21:06:13.193Z,2.83
2018-07-30T21:08:41.536Z,3.60
2018-07-30T21:11:09.929Z,3.53
2018-07-30T21:13:37.952Z,2.90
2018-07-30T21:16:07.036Z,3.10
2018-07-30T21:18:38.488Z,3.10
2018-07-30T21:21:06.833Z,3.57
2018-07-30T21:23:36.037Z,3.13
2018-07-30T21:26:04.967Z,3.27
2018-07-30T21:28:39.155Z,3.13
2018-07-30T21:31:07.698Z,5.43
2018-07-30T21:33:37.104Z,3.53
2018-07-30T21:36:06.285Z,3.20
2018-07-30T21:38:35.702Z,3.50
2018-07-30T21:41:05.113Z,3.30
2018-07-30T21:43:35.447Z,3.27
2018-07-30T21:46:04.917Z,3.23
2018-07-30T21:48:34.952Z,3.13
2018-07-30T21:51:04.259Z,3.37
2018-07-30T21:53:37.320Z,3.70
2018-07-30T21:56:06.734Z,3.47
2018-07-30T21:58:35.759Z,3.20
2018-07-30T22:01:05.349Z,3.27
2018-07-30T22:03:34.066Z,4.20
2018-07-30T22:06:06.763Z,3.93
2018-07-30T22:08:35.808Z,3.03
2018-07-30T22:11:05.080Z,3.80
2018-07-30T22:13:33.615Z,4.03
2018-07-30T22:16:01.945Z,3.73
2018-07-30T22:18:37.019Z,4.27
2018-07-30T22:21:06.565Z,3.90
2018-07-30T22:23:36.987Z,3.90
2018-07-30T22:26:05.519Z,3.97
2018-07-30T22:28:34.996Z,3.70
2018-07-30T22:31:03.985Z,3.70
2018-07-30T22:33:32.358Z,4.67
2018-07-30T22:36:00.615Z,4.10
2018-07-30T22:38:29.023Z,3.67
2018-07-30T22:40:57.336Z,4.30
2018-07-30T22:43:25.720Z,3.57
2018-07-30T22:48:47.148Z,4.40
2018-07-30T22:51:15.388Z,3.40
2018-07-30T22:53:43.668Z,3.93
2018-07-30T22:56:12.083Z,3.70
2018-07-30T22:58:40.496Z,4.80
2018-07-30T23:01:08.840Z,4.40
2018-07-30T23:03:37.325Z,4.17
2018-07-30T23:06:06.725Z,4.53
2018-07-30T23:08:41.011Z,4.47
2018-07-30T23:11:09.280Z,3.80
2018-07-30T23:13:37.645Z,4.47
2018-07-30T23:16:07.196Z,3.60
2018-07-30T23:18:35.575Z,3.53
2018-07-30T23:21:04.829Z,4.27
2018-07-30T23:23:33.581Z,3.90
2018-07-30T23:26:01.858Z,3.80
2018-07-30T23:28:30.295Z,4.20
2018-07-30T23:30:58.577Z,4.27
2018-07-30T23:33:26.943Z,5.00
2018-07-30T23:35:55.304Z,3.90
2018-07-30T23:38:24.494Z,4.50
2018-07-30T23:40:54.018Z,4.13
2018-07-30T23:43:23.496Z,5.77
2018-07-30T23:45:52.484Z,4.20
2018-07-30T23:48:20.760Z,4.50
2018-07-30T23:50:49.037Z,4.27
2018-07-30T23:53:17.411Z,4.00
2018-07-30T23:55:45.712Z,3.77
2018-07-30T23:58:14.035Z,4.63
